Time,TemperatureF,DewpointF,PressureIn,WindDirection,WindDirectionDegrees,WindSpeedMPH,WindSpeedGustMPH,Humidity,HourlyPrecipIn,Conditions,Clouds,dailyrainin,SoftwareType,DateUTC
2013-08-24 00:00:00,73.1,70.0,29.92,SSE,149,8.0,11.5,90,0.00,,CLR,0.00,VWS V14.01,2013-08-24 05:00:00,
2013-08-24 00:10:00,72.9,69.8,29.92,SE,124,9.0,10.5,90,0.00,,SCT120,0.00,VWS V14.01,2013-08-24 05:10:00,
2013-08-24 00:15:00,72.8,69.7,29.92,SE,144,6.0,9.4,90,0.00,,SCT120,0.00,VWS V14.01,2013-08-24 05:15:00,
2013-08-24 00:20:00,72.6,69.8,29.92,SSE,157,3.0,9.4,91,0.00,,SCT120,0.00,VWS V14.01,2013-08-24 05:20:00,
2013-08-24 00:25:00,72.5,69.7,29.92,SSE,156,5.0,11.5,91,0.00,,BKN110,0.00,VWS V14.01,2013-08-24 05:25:00,
2013-08-24 00:35:00,72.4,69.6,29.92,SE,140,2.0,13.6,91,0.00,,BKN110,0.00,VWS V14.01,2013-08-24 05:35:00,
2013-08-24 00:40:00,72.5,69.7,29.92,SE,144,5.0,13.6,91,0.00,,BKN110,0.00,VWS V14.01,2013-08-24 05:40:00,
2013-08-24 00:45:00,72.6,69.8,29.92,SSE,161,9.0,13.6,91,0.00,,SCT110,0.00,VWS V14.01,2013-08-24 05:45:00,
2013-08-24 00:50:00,72.6,69.8,29.92,South,176,7.0,11.5,91,0.00,,SCT110,0.00,VWS V14.01,2013-08-24 05:50:00,
2013-08-24 00:55:00,72.6,69.8,29.92,SE,146,5.0,13.6,91,0.00,,SCT110,0.00,VWS V14.01,2013-08-24 05:55:00,
2013-08-24 01:05:00,72.7,69.9,29.92,SSE,148,12.0,12.6,91,0.00,,CLR,0.00,VWS V14.01,2013-08-24 06:05:00,
2013-08-24 01:10:00,72.7,69.9,29.92,South,171,4.0,12.6,91,0.00,,CLR,0.00,VWS V14.01,2013-08-24 06:10:00,
2013-08-24 01:20:00,72.5,69.7,29.92,SSE,160,6.0,9.4,91,0.00,,CLR,0.00,VWS V14.01,2013-08-24 06:20:00,
2013-08-24 01:30:00,72.4,69.6,29.92,South,176,2.0,9.4,91,0.00,,CLR,0.00,VWS V14.01,2013-08-24 06:30:00,
2013-08-24 01:40:00,72.4,69.6,29.92,SE,138,4.0,11.5,91,0.00,,CLR,0.00,VWS V14.01,2013-08-24 06:40:00,
2013-08-24 01:45:00,72.3,69.5,29.92,SE,132,4.0,11.5,91,0.00,,,0.00,VWS V14.01,2013-08-24 06:45:00,
2013-08-24 01:50:00,72.2,69.4,29.92,SSE,155,4.0,11.5,91,0.00,,,0.00,VWS V14.01,2013-08-24 06:50:00,
2013-08-24 01:55:00,72.2,69.8,29.92,SSE,148,5.0,10.5,92,0.00,,,0.00,VWS V14.01,2013-08-24 06:55:00,
2013-08-24 02:00:00,72.2,69.8,29.93,South,179,4.0,15.7,92,0.00,,,0.00,VWS V14.01,2013-08-24 07:00:00,
2013-08-24 02:05:00,72.1,69.7,29.92,SSE,163,4.0,12.6,92,0.00,,CLR,0.00,VWS V14.01,2013-08-24 07:05:00,
2013-08-24 02:15:00,72.1,69.7,29.92,SSE,150,5.0,9.4,92,0.00,,CLR,0.00,VWS V14.01,2013-08-24 07:15:00,
2013-08-24 02:20:00,72.1,69.7,29.92,SSE,148,9.0,10.5,92,0.00,,CLR,0.00,VWS V14.01,2013-08-24 07:20:00,
2013-08-24 02:25:00,72.1,69.7,29.92,SSE,149,5.0,11.5,92,0.00,,CLR,0.00,VWS V14.01,2013-08-24 07:25:00,
2013-08-24 02:30:00,72.0,69.6,29.92,South,169,6.0,10.5,92,0.00,,CLR,0.00,VWS V14.01,2013-08-24 07:30:00,
2013-08-24 02:40:00,71.8,69.3,29.92,SSE,154,6.0,12.6,92,0.00,,CLR,0.00,VWS V14.01,2013-08-24 07:40:00,
2013-08-24 02:45:00,71.7,69.3,29.92,SE,133,7.0,10.5,92,0.00,,CLR,0.00,VWS V14.01,2013-08-24 07:45:00,
2013-08-24 02:50:00,71.6,69.5,29.92,SE,140,7.0,10.5,93,0.00,,CLR,0.00,VWS V14.01,2013-08-24 07:50:00,
2013-08-24 03:00:00,71.5,69.4,29.92,SSE,148,8.0,10.5,93,0.00,,CLR,0.00,VWS V14.01,2013-08-24 08:00:00,
2013-08-24 03:05:00,71.4,69.3,29.92,SSE,148,5.0,13.6,93,0.00,,CLR,0.00,VWS V14.01,2013-08-24 08:05:00,
2013-08-24 03:15:00,71.4,69.3,29.92,SSE,153,3.0,11.5,93,0.00,,CLR,0.00,VWS V14.01,2013-08-24 08:15:00,
2013-08-24 03:20:00,71.3,69.2,29.92,South,182,7.0,11.5,93,0.00,,CLR,0.00,VWS V14.01,2013-08-24 08:20:00,
2013-08-24 03:25:00,71.3,69.2,29.92,SE,144,3.0,11.5,93,0.00,,SCT110,0.00,VWS V14.01,2013-08-24 08:25:00,
2013-08-24 03:30:00,71.3,69.2,29.92,SE,131,5.0,11.5,93,0.00,,SCT110,0.00,VWS V14.01,2013-08-24 08:30:00,
2013-08-24 03:35:00,71.3,69.2,29.91,ESE,123,3.0,11.5,93,0.00,,SCT110,0.00,VWS V14.01,2013-08-24 08:35:00,
2013-08-24 03:40:00,71.3,69.2,29.91,SSE,157,3.0,9.4,93,0.00,,SCT110,0.00,VWS V14.01,2013-08-24 08:40:00,
2013-08-24 03:45:00,71.3,69.2,29.92,SSE,166,10.0,10.5,93,0.00,,SCT110,0.00,VWS V14.01,2013-08-24 08:45:00,
2013-08-24 03:50:00,71.3,69.2,29.91,SSE,157,6.0,11.5,93,0.00,,SCT110,0.00,VWS V14.01,2013-08-24 08:50:00,
2013-08-24 03:55:00,71.3,69.2,29.92,SE,138,3.0,13.6,93,0.00,,SCT110,0.00,VWS V14.01,2013-08-24 08:55:00,
2013-08-24 04:00:00,71.4,69.3,29.92,SSE,156,7.0,9.4,93,0.00,,SCT110,0.00,VWS V14.01,2013-08-24 09:00:00,
2013-08-24 04:05:00,71.4,69.3,29.92,SSE,155,6.0,10.5,93,0.00,,SCT120,0.00,VWS V14.01,2013-08-24 09:05:00,
2013-08-24 04:15:00,71.4,69.3,29.92,SE,132,4.0,10.5,93,0.00,,SCT120,0.00,VWS V14.01,2013-08-24 09:15:00,
2013-08-24 04:20:00,71.4,69.3,29.91,SE,143,8.0,11.5,93,0.00,,SCT120,0.00,VWS V14.01,2013-08-24 09:20:00,
2013-08-24 04:25:00,71.4,69.3,29.91,SE,144,4.0,11.5,93,0.00,,SCT120,0.00,VWS V14.01,2013-08-24 09:25:00,
2013-08-24 04:30:00,71.3,69.2,29.91,SSE,157,10.0,12.6,93,0.00,,SCT120,0.00,VWS V14.01,2013-08-24 09:30:00,
2013-08-24 04:35:00,71.4,69.3,29.91,SSE,151,10.0,14.7,93,0.00,,SCT120,0.00,VWS V14.01,2013-08-24 09:35:00,
2013-08-24 04:40:00,71.4,69.3,29.91,SSE,148,6.0,12.6,93,0.00,,SCT120,0.00,VWS V14.01,2013-08-24 09:40:00,
2013-08-24 04:45:00,71.3,69.2,29.91,SSE,148,6.0,13.6,93,0.00,,SCT120,0.00,VWS V14.01,2013-08-24 09:45:00,
2013-08-24 04:50:00,71.3,68.9,29.91,SSE,163,4.0,11.5,92,0.00,,SCT120,0.00,VWS V14.01,2013-08-24 09:50:00,
2013-08-24 05:00:00,71.1,68.7,29.91,SE,139,7.0,11.5,92,0.00,,SCT120,0.00,VWS V14.01,2013-08-24 10:00:00,
2013-08-24 05:10:00,71.0,68.9,29.91,SE,145,4.0,12.6,93,0.00,,CLR,0.00,VWS V14.01,2013-08-24 10:10:00,
2013-08-24 05:15:00,71.0,68.9,29.91,SSE,158,5.0,10.5,93,0.00,,CLR,0.00,VWS V14.01,2013-08-24 10:15:00,
2013-08-24 05:20:00,70.9,68.8,29.90,SE,133,5.0,13.6,93,0.00,,CLR,0.00,VWS V14.01,2013-08-24 10:20:00,
2013-08-24 05:25:00,71.0,68.9,29.90,South,182,5.0,13.6,93,0.00,,CLR,0.00,VWS V14.01,2013-08-24 10:25:00,
2013-08-24 05:30:00,70.9,68.8,29.91,SE,145,10.0,14.7,93,0.00,,CLR,0.00,VWS V14.01,2013-08-24 10:30:00,
2013-08-24 05:35:00,70.8,68.7,29.90,SSE,149,6.0,11.5,93,0.00,,CLR,0.00,VWS V14.01,2013-08-24 10:35:00,
2013-08-24 05:45:00,70.8,68.7,29.91,SE,134,4.0,13.6,93,0.00,,CLR,0.00,VWS V14.01,2013-08-24 10:45:00,
2013-08-24 05:50:00,70.8,68.7,29.91,SSE,155,7.0,13.6,93,0.00,,CLR,0.00,VWS V14.01,2013-08-24 10:50:00,
2013-08-24 05:55:00,71.0,68.9,29.90,ESE,102,11.0,14.7,93,0.00,,CLR,0.00,VWS V14.01,2013-08-24 10:55:00,
2013-08-24 06:00:00,71.1,68.7,29.90,SSE,148,8.0,13.6,92,0.00,,CLR,0.00,VWS V14.01,2013-08-24 11:00:00,
2013-08-24 06:05:00,71.2,68.8,29.91,SSE,149,5.0,15.7,92,0.00,,CLR,0.00,VWS V14.01,2013-08-24 11:05:00,
2013-08-24 06:10:00,71.2,68.8,29.90,SSE,148,6.0,12.6,92,0.00,,CLR,0.00,VWS V14.01,2013-08-24 11:10:00,
2013-08-24 06:15:00,71.2,68.8,29.90,SE,138,7.0,15.7,92,0.00,,CLR,0.00,VWS V14.01,2013-08-24 11:15:00,
2013-08-24 06:20:00,71.2,68.8,29.90,SE,129,4.0,14.7,92,0.00,,CLR,0.00,VWS V14.01,2013-08-24 11:20:00,
2013-08-24 06:25:00,71.2,68.8,29.90,SSE,153,4.0,13.6,92,0.00,,SCT120,0.00,VWS V14.01,2013-08-24 11:25:00,
2013-08-24 06:30:00,71.3,68.9,29.90,SE,131,9.0,13.6,92,0.00,,SCT120,0.00,VWS V14.01,2013-08-24 11:30:00,
2013-08-24 06:35:00,71.3,68.9,29.90,SSE,150,5.0,14.7,92,0.00,,SCT120,0.00,VWS V14.01,2013-08-24 11:35:00,
2013-08-24 06:40:00,71.5,69.1,29.90,SE,141,9.0,11.5,92,0.00,,SCT120,0.00,VWS V14.01,2013-08-24 11:40:00,
2013-08-24 06:45:00,71.5,68.7,29.90,SE,140,10.0,14.7,91,0.00,,BKN120,0.00,VWS V14.01,2013-08-24 11:45:00,
2013-08-24 06:55:00,71.8,69.0,29.90,SSE,150,5.0,14.7,91,0.00,,BKN120,0.00,VWS V14.01,2013-08-24 11:55:00,
2013-08-24 07:05:00,71.8,69.0,29.90,SSE,152,7.0,13.6,91,0.00,,OVC110,0.00,VWS V14.01,2013-08-24 12:05:00,
2013-08-24 07:10:00,72.0,69.2,29.89,SSE,151,10.0,15.7,91,0.00,,OVC110,0.00,VWS V14.01,2013-08-24 12:10:00,
2013-08-24 07:15:00,72.2,69.1,29.90,SE,138,9.0,12.6,90,0.00,,OVC110,0.00,VWS V14.01,2013-08-24 12:15:00,
2013-08-24 07:25:00,72.5,69.4,29.90,SE,146,6.0,10.5,90,0.00,,OVC110,0.00,VWS V14.01,2013-08-24 12:25:00,
2013-08-24 07:30:00,72.5,69.4,29.90,SSE,148,12.0,12.6,90,0.00,,OVC110,0.00,VWS V14.01,2013-08-24 12:30:00,
2013-08-24 07:35:00,72.5,69.4,29.90,SE,142,6.0,15.7,90,0.00,,BKN110,0.00,VWS V14.01,2013-08-24 12:35:00,
2013-08-24 07:40:00,72.5,69.7,29.89,SE,135,8.0,10.5,91,0.00,,BKN100,0.00,VWS V14.01,2013-08-24 12:40:00,
2013-08-24 07:45:00,72.6,69.5,29.89,SSE,162,2.0,13.6,90,0.00,,BKN100,0.00,VWS V14.01,2013-08-24 12:45:00,
2013-08-24 07:50:00,72.7,69.6,29.89,SE,134,11.0,15.7,90,0.00,,BKN100,0.00,VWS V14.01,2013-08-24 12:50:00,
2013-08-24 07:55:00,72.7,69.6,29.89,SSE,166,11.0,12.6,90,0.00,,BKN100,0.00,VWS V14.01,2013-08-24 12:55:00,
2013-08-24 08:00:00,72.8,69.7,29.90,SE,136,5.0,11.5,90,0.00,,BKN100,0.00,VWS V14.01,2013-08-24 13:00:00,
2013-08-24 08:05:00,72.8,69.7,29.90,South,186,5.0,12.6,90,0.00,,OVC100,0.00,VWS V14.01,2013-08-24 13:05:00,
2013-08-24 08:10:00,72.9,69.8,29.90,SE,146,6.0,12.6,90,0.00,,OVC100,0.00,VWS V14.01,2013-08-24 13:10:00,
2013-08-24 08:15:00,73.0,69.9,29.89,SSE,150,9.0,12.6,90,0.00,,OVC100,0.00,VWS V14.01,2013-08-24 13:15:00,
2013-08-24 08:20:00,73.1,70.0,29.90,SSE,159,1.0,10.5,90,0.00,,BKN120,0.00,VWS V14.01,2013-08-24 13:20:00,
2013-08-24 08:30:00,73.3,70.2,29.90,SE,138,8.0,13.6,90,0.00,,BKN120,0.00,VWS V14.01,2013-08-24 13:30:00,
2013-08-24 08:35:00,73.5,70.1,29.89,SSE,155,4.0,14.7,89,0.00,,BKN120,0.00,VWS V14.01,2013-08-24 13:35:00,
2013-08-24 08:40:00,73.7,70.3,29.89,SSE,162,7.0,16.8,89,0.00,,BKN120,0.00,VWS V14.01,2013-08-24 13:40:00,
2013-08-24 08:50:00,73.8,70.4,29.89,SE,144,8.0,13.6,89,0.00,,SCT120,0.00,VWS V14.01,2013-08-24 13:50:00,
2013-08-24 08:55:00,73.8,70.4,29.89,SE,146,5.0,11.5,89,0.00,,SCT120,0.00,VWS V14.01,2013-08-24 13:55:00,
2013-08-24 09:00:00,73.8,70.4,29.88,SE,146,9.0,10.5,89,0.00,,SCT120,0.00,VWS V14.01,2013-08-24 14:00:00,
2013-08-24 09:05:00,74.0,70.6,29.89,SSE,162,4.0,11.5,89,0.00,,CLR,0.00,VWS V14.01,2013-08-24 14:05:00,
2013-08-24 09:15:00,74.7,70.9,29.88,SSE,165,4.0,10.5,88,0.00,,CLR,0.00,VWS V14.01,2013-08-24 14:15:00,
2013-08-24 09:20:00,75.1,71.0,29.88,SSE,156,8.0,15.7,87,0.00,,CLR,0.00,VWS V14.01,2013-08-24 14:20:00,
2013-08-24 09:25:00,75.5,71.0,29.88,South,180,4.0,12.6,86,0.00,,SCT120,0.00,VWS V14.01,2013-08-24 14:25:00,
2013-08-24 09:30:00,75.7,70.9,29.88,SSE,161,7.0,12.6,85,0.00,,SCT120,0.00,VWS V14.01,2013-08-24 14:30:00,
2013-08-24 09:35:00,76.0,70.8,29.88,SSE,167,11.0,13.6,84,0.00,,SCT120,0.00,VWS V14.01,2013-08-24 14:35:00,
2013-08-24 09:45:00,76.7,71.2,29.87,South,180,5.0,11.5,83,0.00,,SCT120,0.00,VWS V14.01,2013-08-24 14:45:00,
2013-08-24 09:50:00,77.6,71.7,29.87,SSW,196,5.0,16.8,82,0.00,,SCT120,0.00,VWS V14.01,2013-08-24 14:50:00,
2013-08-24 09:55:00,78.2,71.2,29.87,SSW,192,6.0,15.7,79,0.00,,SCT120,0.00,VWS V14.01,2013-08-24 14:55:00,
2013-08-24 10:00:00,78.7,71.6,29.87,South,182,12.0,16.8,79,0.00,,SCT120,0.00,VWS V14.01,2013-08-24 15:00:00,
2013-08-24 10:05:00,78.9,71.8,29.87,South,172,7.0,21.0,79,0.00,,CLR,0.00,VWS V14.01,2013-08-24 15:05:00,
2013-08-24 10:15:00,78.5,71.4,29.87,South,169,17.0,18.9,79,0.00,,CLR,0.00,VWS V14.01,2013-08-24 15:15:00,
2013-08-24 10:20:00,78.4,71.7,29.86,SSE,155,8.0,17.8,80,0.00,,CLR,0.00,VWS V14.01,2013-08-24 15:20:00,
2013-08-24 10:25:00,79.0,72.7,29.86,SSE,155,10.0,17.8,81,0.00,,CLR,0.00,VWS V14.01,2013-08-24 15:25:00,
2013-08-24 10:30:00,79.4,72.7,29.86,South,175,8.0,15.7,80,0.00,,CLR,0.00,VWS V14.01,2013-08-24 15:30:00,
2013-08-24 10:35:00,79.8,72.3,29.86,South,176,5.0,22.0,78,0.00,,-RA,0.00,VWS V14.01,2013-08-24 15:35:00,
2013-08-24 10:40:00,80.0,72.5,29.86,SSE,163,7.0,21.0,78,0.00,,-RA,0.00,VWS V14.01,2013-08-24 15:40:00,
2013-08-24 10:50:00,80.7,72.4,29.85,SSW,196,9.0,16.8,76,0.00,,,0.00,VWS V14.01,2013-08-24 15:50:00,
2013-08-24 10:55:00,81.1,72.8,29.85,SSE,165,6.0,15.7,76,0.00,,,0.00,VWS V14.01,2013-08-24 15:55:00,
2013-08-24 11:05:00,81.7,73.4,29.85,South,186,13.0,21.0,76,0.00,,,0.00,VWS V14.01,2013-08-24 16:05:00,
2013-08-24 11:10:00,82.2,73.1,29.85,South,188,8.0,17.8,74,0.00,,,0.00,VWS V14.01,2013-08-24 16:10:00,
2013-08-24 11:20:00,80.8,70.9,29.85,South,182,5.0,14.7,72,0.00,,,0.00,VWS V14.01,2013-08-24 16:20:00,
2013-08-24 11:25:00,80.5,70.7,29.85,SSE,167,11.0,16.8,72,0.00,,CLR,0.00,VWS V14.01,2013-08-24 16:25:00,
2013-08-24 11:30:00,80.6,71.6,29.85,South,191,5.0,18.9,74,0.00,,CLR,0.00,VWS V14.01,2013-08-24 16:30:00,
2013-08-24 11:40:00,81.5,72.4,29.85,SSE,154,8.0,15.7,74,0.00,,CLR,0.00,VWS V14.01,2013-08-24 16:40:00,
2013-08-24 11:45:00,82.0,72.1,29.85,SSW,202,8.0,19.9,72,0.00,,CLR,0.00,VWS V14.01,2013-08-24 16:45:00,
2013-08-24 11:50:00,82.4,72.1,29.85,South,170,14.0,17.8,71,0.00,,CLR,0.00,VWS V14.01,2013-08-24 16:50:00,
2013-08-24 11:55:00,82.7,72.8,29.85,South,180,7.0,23.1,72,0.00,,CLR,0.00,VWS V14.01,2013-08-24 16:55:00,
2013-08-24 12:00:00,82.8,72.0,29.84,South,186,8.0,21.0,70,0.00,,CLR,0.00,VWS V14.01,2013-08-24 17:00:00,
2013-08-24 12:05:00,82.6,72.2,29.84,South,171,7.0,19.9,71,0.00,,CLR,0.00,VWS V14.01,2013-08-24 17:05:00,
2013-08-24 12:15:00,83.0,72.2,29.84,SSE,159,14.0,19.9,70,0.00,,CLR,0.00,VWS V14.01,2013-08-24 17:15:00,
2013-08-24 12:20:00,83.1,72.3,29.84,SSE,167,10.0,24.1,70,0.00,,CLR,0.00,VWS V14.01,2013-08-24 17:20:00,
2013-08-24 12:25:00,83.5,72.7,29.84,South,180,10.0,18.9,70,0.00,,CLR,0.00,VWS V14.01,2013-08-24 17:25:00,
2013-08-24 12:35:00,84.0,72.7,29.84,SSE,150,9.0,26.2,69,0.00,,CLR,0.00,VWS V14.01,2013-08-24 17:35:00,
2013-08-24 12:40:00,84.2,72.9,29.84,South,172,17.0,17.8,69,0.00,,CLR,0.00,VWS V14.01,2013-08-24 17:40:00,
2013-08-24 12:45:00,84.3,73.0,29.84,SSE,148,10.0,19.9,69,0.00,,CLR,0.00,VWS V14.01,2013-08-24 17:45:00,
2013-08-24 12:55:00,84.5,73.7,29.83,South,187,10.0,19.9,70,0.00,,CLR,0.00,VWS V14.01,2013-08-24 17:55:00,
2013-08-24 13:00:00,84.5,73.7,29.83,South,182,10.0,22.0,70,0.00,,CLR,0.00,VWS V14.01,2013-08-24 18:00:00,
2013-08-24 13:05:00,84.6,73.7,29.83,SSE,159,14.0,22.0,70,0.00,,CLR,0.00,VWS V14.01,2013-08-24 18:05:00,
2013-08-24 13:15:00,84.5,74.5,29.82,SSW,200,7.0,18.9,72,0.00,,CLR,0.00,VWS V14.01,2013-08-24 18:15:00,
2013-08-24 13:20:00,84.7,73.8,29.83,South,173,8.0,21.0,70,0.00,,CLR,0.00,VWS V14.01,2013-08-24 18:20:00,
2013-08-24 13:25:00,84.7,73.8,29.82,SE,131,12.0,21.0,70,0.00,,CLR,0.00,VWS V14.01,2013-08-24 18:25:00,
2013-08-24 13:30:00,85.0,75.0,29.82,SSE,168,9.0,16.8,72,0.00,,CLR,0.00,VWS V14.01,2013-08-24 18:30:00,
2013-08-24 13:40:00,85.6,74.7,29.82,SSW,197,8.0,17.8,70,0.00,,CLR,0.00,VWS V14.01,2013-08-24 18:40:00,
2013-08-24 13:50:00,86.1,76.0,29.82,SSE,166,12.0,19.9,72,0.00,,CLR,0.00,VWS V14.01,2013-08-24 18:50:00,
2013-08-24 13:55:00,86.6,75.2,29.82,South,173,11.0,19.9,69,0.00,,CLR,0.00,VWS V14.01,2013-08-24 18:55:00,
2013-08-24 14:00:00,86.6,74.8,29.82,South,174,12.0,21.0,68,0.00,,CLR,0.00,VWS V14.01,2013-08-24 19:00:00,
2013-08-24 14:05:00,86.5,74.2,29.82,SSE,163,8.0,16.8,67,0.00,,CLR,0.00,VWS V14.01,2013-08-24 19:05:00,
2013-08-24 14:10:00,86.2,73.5,29.82,South,169,19.0,21.0,66,0.00,,CLR,0.00,VWS V14.01,2013-08-24 19:10:00,
2013-08-24 14:15:00,86.0,73.3,29.82,South,186,15.0,21.0,66,0.00,,CLR,0.00,VWS V14.01,2013-08-24 19:15:00,
2013-08-24 14:20:00,86.0,73.8,29.82,SE,129,13.0,17.8,67,0.00,,CLR,0.00,VWS V14.01,2013-08-24 19:20:00,
2013-08-24 14:25:00,86.2,73.1,29.81,SSW,196,9.0,22.0,65,0.00,,CLR,0.00,VWS V14.01,2013-08-24 19:25:00,
2013-08-24 14:35:00,87.0,73.4,29.82,SSW,207,11.0,23.1,64,0.00,,CLR,0.00,VWS V14.01,2013-08-24 19:35:00,
2013-08-24 14:40:00,87.2,73.6,29.82,South,184,13.0,21.0,64,0.00,,CLR,0.00,VWS V14.01,2013-08-24 19:40:00,
2013-08-24 14:50:00,86.7,72.6,29.81,South,182,10.0,25.2,63,0.00,,CLR,0.00,VWS V14.01,2013-08-24 19:50:00,
2013-08-24 14:55:00,86.4,73.2,29.82,SSE,155,10.0,22.0,65,0.00,,CLR,0.00,VWS V14.01,2013-08-24 19:55:00,
2013-08-24 15:00:00,86.4,73.2,29.81,SSE,148,9.0,24.1,65,0.00,,CLR,0.00,VWS V14.01,2013-08-24 20:00:00,
2013-08-24 15:05:00,86.2,73.5,29.81,SSW,194,9.0,23.1,66,0.00,,CLR,0.00,VWS V14.01,2013-08-24 20:05:00,
2013-08-24 15:10:00,86.3,74.1,29.81,SSE,155,8.0,21.0,67,0.00,,CLR,0.00,VWS V14.01,2013-08-24 20:10:00,
2013-08-24 15:15:00,86.5,74.2,29.81,SSE,161,15.0,18.9,67,0.00,,CLR,0.00,VWS V14.01,2013-08-24 20:15:00,
2013-08-24 15:25:00,86.5,73.8,29.80,SSE,153,16.0,24.1,66,0.00,,CLR,0.00,VWS V14.01,2013-08-24 20:25:00,
2013-08-24 15:35:00,86.6,73.9,29.80,SSW,192,11.0,22.0,66,0.00,,CLR,0.00,VWS V14.01,2013-08-24 20:35:00,
2013-08-24 15:40:00,86.5,73.8,29.80,South,169,9.0,22.0,66,0.00,,CLR,0.00,VWS V14.01,2013-08-24 20:40:00,
2013-08-24 15:50:00,85.7,73.5,29.79,SSE,157,14.0,25.2,67,0.00,,CLR,0.00,VWS V14.01,2013-08-24 20:50:00,
2013-08-24 15:55:00,85.8,74.0,29.79,South,170,13.0,22.0,68,0.00,,CLR,0.00,VWS V14.01,2013-08-24 20:55:00,
2013-08-24 16:00:00,86.2,74.8,29.79,SSE,156,17.0,19.9,69,0.00,,CLR,0.00,VWS V14.01,2013-08-24 21:00:00,
2013-08-24 16:10:00,86.8,74.5,29.79,South,178,9.0,19.9,67,0.00,,CLR,0.00,VWS V14.01,2013-08-24 21:10:00,
2013-08-24 16:20:00,87.0,74.7,29.79,South,188,15.0,25.2,67,0.00,,CLR,0.00,VWS V14.01,2013-08-24 21:20:00,
2013-08-24 16:30:00,87.3,75.4,29.79,South,186,10.0,19.9,68,0.00,,CLR,0.00,VWS V14.01,2013-08-24 21:30:00,
2013-08-24 16:40:00,87.5,74.8,29.79,SSE,149,6.0,24.1,66,0.00,,CLR,0.00,VWS V14.01,2013-08-24 21:40:00,
2013-08-24 16:45:00,87.7,74.9,29.79,SE,136,12.0,22.0,66,0.00,,CLR,0.00,VWS V14.01,2013-08-24 21:45:00,
2013-08-24 16:50:00,87.7,74.5,29.79,South,185,13.0,27.3,65,0.00,,CLR,0.00,VWS V14.01,2013-08-24 21:50:00,
2013-08-24 16:55:00,87.5,74.3,29.79,South,175,13.0,23.1,65,0.00,,CLR,0.00,VWS V14.01,2013-08-24 21:55:00,
2013-08-24 17:00:00,87.3,75.0,29.79,SSE,159,7.0,18.9,67,0.00,,CLR,0.00,VWS V14.01,2013-08-24 22:00:00,
2013-08-24 17:05:00,87.2,74.5,29.79,South,190,12.0,23.1,66,0.00,,CLR,0.00,VWS V14.01,2013-08-24 22:05:00,
2013-08-24 17:10:00,87.2,75.4,29.79,SSE,160,6.0,21.0,68,0.00,,CLR,0.00,VWS V14.01,2013-08-24 22:10:00,
2013-08-24 17:15:00,87.1,74.4,29.79,SSE,155,10.0,24.1,66,0.00,,CLR,0.00,VWS V14.01,2013-08-24 22:15:00,
2013-08-24 17:20:00,86.8,74.5,29.79,South,183,12.0,25.2,67,0.00,,CLR,0.00,VWS V14.01,2013-08-24 22:20:00,
2013-08-24 17:25:00,86.8,75.4,29.79,South,185,10.0,16.8,69,0.00,,CLR,0.00,VWS V14.01,2013-08-24 22:25:00,
2013-08-24 17:30:00,86.8,75.0,29.79,South,175,14.0,22.0,68,0.00,,CLR,0.00,VWS V14.01,2013-08-24 22:30:00,
2013-08-24 17:40:00,86.6,75.2,29.79,South,173,12.0,16.8,69,0.00,,CLR,0.00,VWS V14.01,2013-08-24 22:40:00,
2013-08-24 17:45:00,86.7,75.8,29.79,SSE,151,8.0,15.7,70,0.00,,CLR,0.00,VWS V14.01,2013-08-24 22:45:00,
2013-08-24 17:50:00,86.7,75.8,29.79,SE,146,4.0,14.7,70,0.00,,CLR,0.00,VWS V14.01,2013-08-24 22:50:00,
2013-08-24 17:55:00,86.6,75.7,29.79,South,171,9.0,22.0,70,0.00,,CLR,0.00,VWS V14.01,2013-08-24 22:55:00,
2013-08-24 18:00:00,86.6,76.1,29.79,South,173,9.0,22.0,71,0.00,,CLR,0.00,VWS V14.01,2013-08-24 23:00:00,
2013-08-24 18:05:00,86.6,76.1,29.79,SSW,196,9.0,17.8,71,0.00,,CLR,0.00,VWS V14.01,2013-08-24 23:05:00,
2013-08-24 18:10:00,86.7,76.2,29.79,SSE,168,17.0,18.9,71,0.00,,CLR,0.00,VWS V14.01,2013-08-24 23:10:00,
2013-08-24 18:15:00,86.7,75.8,29.79,South,182,10.0,18.9,70,0.00,,CLR,0.00,VWS V14.01,2013-08-24 23:15:00,
2013-08-24 18:20:00,86.8,75.8,29.79,SSE,168,6.0,19.9,70,0.00,,CLR,0.00,VWS V14.01,2013-08-24 23:20:00,
2013-08-24 18:25:00,86.7,75.8,29.79,SSW,201,10.0,19.9,70,0.00,,CLR,0.00,VWS V14.01,2013-08-24 23:25:00,
2013-08-24 18:30:00,86.7,76.2,29.79,South,173,18.0,18.9,71,0.00,,CLR,0.00,VWS V14.01,2013-08-24 23:30:00,
2013-08-24 18:40:00,86.4,75.9,29.79,South,187,10.0,15.7,71,0.00,,CLR,0.00,VWS V14.01,2013-08-24 23:40:00,
2013-08-24 18:45:00,86.3,75.8,29.79,SSW,192,7.0,18.9,71,0.00,,CLR,0.00,VWS V14.01,2013-08-24 23:45:00,
2013-08-24 18:55:00,86.1,76.0,29.79,South,188,15.0,19.9,72,0.00,,CLR,0.00,VWS V14.01,2013-08-24 23:55:00,
2013-08-24 19:00:00,86.0,76.3,29.79,South,190,1.0,17.8,73,0.00,,CLR,0.00,VWS V14.01,2013-08-25 00:00:00,
2013-08-24 19:05:00,85.8,76.2,29.79,SSW,199,11.0,16.8,73,0.00,,CLR,0.00,VWS V14.01,2013-08-25 00:05:00,
2013-08-24 19:10:00,85.7,76.1,29.79,SSE,161,8.0,17.8,73,0.00,,CLR,0.00,VWS V14.01,2013-08-25 00:10:00,
2013-08-24 19:20:00,85.4,76.2,29.79,SSE,165,12.0,13.6,74,0.00,,CLR,0.00,VWS V14.01,2013-08-25 00:20:00,
2013-08-24 19:25:00,85.2,76.4,29.79,SSW,197,9.0,14.7,75,0.00,,CLR,0.00,VWS V14.01,2013-08-25 00:25:00,
2013-08-24 19:35:00,84.8,76.0,29.79,SSE,159,5.0,17.8,75,0.00,,CLR,0.00,VWS V14.01,2013-08-25 00:35:00,
2013-08-24 19:40:00,84.6,76.2,29.79,South,182,9.0,14.7,76,0.00,,CLR,0.00,VWS V14.01,2013-08-25 00:40:00,
2013-08-24 19:50:00,84.2,76.2,29.79,South,175,11.0,13.6,77,0.00,,CLR,0.00,VWS V14.01,2013-08-25 00:50:00,
2013-08-24 19:55:00,84.0,76.0,29.79,South,182,7.0,15.7,77,0.00,,CLR,0.00,VWS V14.01,2013-08-25 00:55:00,
2013-08-24 20:00:00,83.9,75.9,29.79,South,189,3.0,14.7,77,0.00,,CLR,0.00,VWS V14.01,2013-08-25 01:00:00,
2013-08-24 20:10:00,83.5,75.9,29.79,SSW,195,10.0,14.7,78,0.00,,CLR,0.00,VWS V14.01,2013-08-25 01:10:00,
2013-08-24 20:15:00,83.3,75.7,29.79,SSW,198,9.0,14.7,78,0.00,,CLR,0.00,VWS V14.01,2013-08-25 01:15:00,
2013-08-24 20:20:00,83.2,76.0,29.79,South,186,7.0,17.8,79,0.00,,CLR,0.00,VWS V14.01,2013-08-25 01:20:00,
2013-08-24 20:25:00,83.1,75.9,29.79,South,180,6.0,12.6,79,0.00,,CLR,0.00,VWS V14.01,2013-08-25 01:25:00,
2013-08-24 20:35:00,82.8,75.6,29.80,South,182,4.0,12.6,79,0.00,,CLR,0.00,VWS V14.01,2013-08-25 01:35:00,
2013-08-24 20:40:00,82.6,75.8,29.80,South,172,6.0,11.5,80,0.00,,CLR,0.00,VWS V14.01,2013-08-25 01:40:00,
2013-08-24 20:50:00,82.1,75.7,29.80,South,184,8.0,12.6,81,0.00,,CLR,0.00,VWS V14.01,2013-08-25 01:50:00,
2013-08-24 20:55:00,82.0,75.6,29.80,South,169,4.0,15.7,81,0.00,,CLR,0.00,VWS V14.01,2013-08-25 01:55:00,
2013-08-24 21:00:00,81.8,75.4,29.81,South,178,6.0,11.5,81,0.00,,CLR,0.00,VWS V14.01,2013-08-25 02:00:00,
2013-08-24 21:05:00,81.7,75.7,29.80,SSW,202,4.0,12.6,82,0.00,,CLR,0.00,VWS V14.01,2013-08-25 02:05:00,
2013-08-24 21:15:00,81.6,75.6,29.81,SSE,163,7.0,15.7,82,0.00,,CLR,0.00,VWS V14.01,2013-08-25 02:15:00,
2013-08-24 21:20:00,81.6,75.6,29.81,South,180,6.0,12.6,82,0.00,,CLR,0.00,VWS V14.01,2013-08-25 02:20:00,
2013-08-24 21:30:00,81.6,75.2,29.81,South,191,9.0,16.8,81,0.00,,CLR,0.00,VWS V14.01,2013-08-25 02:30:00,
2013-08-24 21:40:00,81.4,75.0,29.81,South,182,13.0,14.7,81,0.00,,CLR,0.00,VWS V14.01,2013-08-25 02:40:00,
2013-08-24 21:50:00,81.2,74.8,29.82,SSE,167,4.0,13.6,81,0.00,,CLR,0.00,VWS V14.01,2013-08-25 02:50:00,
2013-08-24 21:55:00,81.1,74.7,29.81,South,182,8.0,15.7,81,0.00,,CLR,0.00,VWS V14.01,2013-08-25 02:55:00,
2013-08-24 22:05:00,80.8,74.8,29.82,SW,225,10.0,15.7,82,0.00,,CLR,0.00,VWS V14.01,2013-08-25 03:05:00,
2013-08-24 22:10:00,80.7,74.7,29.82,SSE,156,9.0,10.5,82,0.00,,CLR,0.00,VWS V14.01,2013-08-25 03:10:00,
2013-08-24 22:20:00,80.5,74.5,29.82,South,187,8.0,16.8,82,0.00,,CLR,0.00,VWS V14.01,2013-08-25 03:20:00,
2013-08-24 22:25:00,80.5,74.5,29.82,South,181,9.0,14.7,82,0.00,,CLR,0.00,VWS V14.01,2013-08-25 03:25:00,
2013-08-24 22:40:00,80.1,74.5,29.82,South,169,9.0,14.7,83,0.00,,CLR,0.00,VWS V14.01,2013-08-25 03:40:00,
2013-08-24 22:50:00,79.8,74.5,29.82,SSE,154,7.0,14.7,84,0.00,,CLR,0.00,VWS V14.01,2013-08-25 03:50:00,
2013-08-24 23:00:00,79.6,74.3,29.82,South,180,10.0,15.7,84,0.00,,CLR,0.00,VWS V14.01,2013-08-25 04:00:00,
2013-08-24 23:05:00,79.5,74.2,29.82,SSW,205,5.0,13.6,84,0.00,,CLR,0.00,VWS V14.01,2013-08-25 04:05:00,
2013-08-24 23:10:00,79.4,74.2,29.82,SSW,192,8.0,15.7,84,0.00,,CLR,0.00,VWS V14.01,2013-08-25 04:10:00,
2013-08-24 23:15:00,79.4,74.2,29.82,SSE,168,7.0,14.7,84,0.00,,CLR,0.00,VWS V14.01,2013-08-25 04:15:00,
2013-08-24 23:20:00,79.3,74.1,29.82,SSW,192,5.0,13.6,84,0.00,,CLR,0.00,VWS V14.01,2013-08-25 04:20:00,
2013-08-24 23:25:00,79.2,73.9,29.83,South,186,10.0,12.6,84,0.00,,CLR,0.00,VWS V14.01,2013-08-25 04:25:00,
2013-08-24 23:30:00,79.1,74.2,29.82,SSE,164,9.0,12.6,85,0.00,,CLR,0.00,VWS V14.01,2013-08-25 04:30:00,
2013-08-24 23:35:00,79.0,74.1,29.82,South,184,10.0,11.5,85,0.00,,CLR,0.00,VWS V14.01,2013-08-25 04:35:00,
2013-08-24 23:40:00,79.0,74.1,29.83,South,185,7.0,12.6,85,0.00,,CLR,0.00,VWS V14.01,2013-08-25 04:40:00,
2013-08-24 23:45:00,78.8,73.9,29.83,SSE,167,6.0,15.7,85,0.00,,CLR,0.00,VWS V14.01,2013-08-25 04:45:00,
2013-08-24 23:50:00,78.7,73.8,29.83,South,183,3.0,12.6,85,0.00,,CLR,0.00,VWS V14.01,2013-08-25 04:50:00,